Nearby METAR Reports

 

EGTE - Exeter Airport, United Kingdom
Distance from station: NNE 25km
Updated: 24/02/2018 15:50
NOT Current
Clear
Clear
 Wind from NE
Wind: NE 14 mph , 22 km/h
Temperature: 5°C
Wind Chill: 1°C
Dew Point: -1°C
Humidity: 66%
Barometer: 1019 hPa
Summary: Clear
Visibility: greater than 7 miles , 10 km
2018/02/24 15:50 EGTE 241550Z 05012KT CAVOK 05/M01 Q1019
EGDY - Yeovilton (navy), United Kingdom
Distance from station: NE 83km
Updated: 25/02/2018 00:50
NOT Current
Clear
Clear
 Wind from ENE
Wind: ENE 13 mph , 20 km/h
Temperature: 0°C
Wind Chill: -6°C
Dew Point: -3°C
Humidity: 80%
Barometer: 1023 hPa
Clouds: Clear
Visibility: 6 miles , 10 km
2018/02/25 00:50 EGDY 250050Z AUTO 07011KT 9999 NCD 00/M03 Q1023
 
EGFF - Cardiff-Wales Ar, United Kingdom
Distance from station: N 99km
Updated: 25/02/2018 01:50
Clear
Clear
 Wind from ENE
Wind: ENE 17 mph , 28 km/h
Temperature: 1°C
Wind Chill: -5°C
Dew Point: -1°C
Humidity: 87%
Barometer: 1024 hPa
Clouds: Clear
Visibility: 6 miles , 10 km
2018/02/25 01:50 EGFF 250150Z AUTO 07015KT 9999 NCD 01/M01 Q1024
EGDX - St Athan Raf, United Kingdom
Distance from station: N 100km
Updated: 25/02/2018 00:50
NOT Current
Clear
Clear
 Wind from ENE
Wind: ENE 14 mph , 22 km/h
Temperature: 1°C
Wind Chill: -4°C
Dew Point: -2°C
Humidity: 81%
Barometer: 1023 hPa
Clouds: Clear
Visibility: 6 miles , 10 km
2018/02/25 00:50 EGDX 250050Z AUTO 07012KT 9999 NCD 01/M02 Q1023
 
EGHQ - Newquay, United Kingdom
Distance from station: W 106km
Updated: 24/02/2018 18:50
NOT Current
Clear
Clear
 Wind from ENE
Wind: ENE 5 mph , 7 km/h
Temperature: 3°C
Wind Chill: 1°C
Dew Point: -2°C
Humidity: 70%
Barometer: 1018 hPa
Summary: Clear
Visibility: greater than 7 miles , 10 km
2018/02/24 18:50 EGHQ 241850Z 07004KT CAVOK 03/M02 Q1018
EGGD - Bristol/Lulsgate, United Kingdom
Distance from station: NNE 111km
Updated: 25/02/2018 01:50
Clear
Clear
 Wind from ENE
Wind: ENE 15 mph , 24 km/h
Temperature: -1°C
Wind Chill: -7°C
Dew Point: -3°C
Humidity: 86%
Barometer: 1023 hPa
Clouds: Clear
Visibility: 6 miles , 9 km
2018/02/25 01:50 EGGD 250150Z AUTO 06013KT 9000 NCD M01/M03 Q1023
 
EGHH - Bournemouth Airp, United Kingdom
Distance from station: ENE 122km
Updated: 24/02/2018 21:50
NOT Current
Clear
Clear
 Wind from ENE
Wind: ENE 8 mph , 13 km/h
Temperature: 0°C
Wind Chill: -4°C
Dew Point: -5°C
Humidity: 69%
Barometer: 1022 hPa
Summary: Clear
Visibility: greater than 7 miles , 10 km
2018/02/24 21:50 EGHH 242150Z 06007KT CAVOK M00/M05 Q1022
EGJA - Alderney/Channel, United Kingdom
Distance from station: SE 127km
Updated: 24/02/2018 18:20
NOT Current
Few Clouds
Few Clouds
 Wind from ENE
Wind: ENE 25 mph , 41 km/h
Clouds: Few Clouds
Visibility: 6 miles , 10 km
Cloud details: Few Clouds 457 m
2018/02/24 18:20 EGJA 241820Z 07022KT 9999 FEW015 04/// Q1017
 
EGDR - Culdrose (navy), United Kingdom
Distance from station: WSW 133km
Updated: 25/02/2018 00:50
NOT Current
Partly cloudy
Partly cloudy
 Wind from E
Wind: E 22 mph , 35 km/h
Temperature: 5°C
Wind Chill: -1°C
Dew Point: 0°C
Humidity: 70%
Barometer: 1019 hPa
Clouds: Partly cloudy
Visibility: 6 miles , 10 km
Cloud details: Partly cloudy 792 m
2018/02/25 00:50 EGDR 250050Z AUTO 10019KT 9999 // SCT026/// 05/M00 Q1019
EGUO - Colerne Raf, United Kingdom
Distance from station: NE 134km
Updated: 19/11/2017 06:50
NOT Current
Partly cloudy
Partly cloudy
 Wind from W
Wind: W 6 mph , 9 km/h
Temperature: 3°C
Wind Chill: 0°C
Dew Point: 3°C
Humidity: 100%
Barometer: 1023 hPa
Clouds: Partly cloudy
Visibility: 6 miles , 10 km
Cloud details: Few Clouds 1067 m
Partly cloudy 5486 m
2017/11/19 06:50 EGUO 190650Z 26005KT 9999 FEW035 SCT180 03/03 Q1023 BLU NOSIG
 
EGJB - Guernsey Airport, United Kingdom
Distance from station: SSE 137km
Updated: 24/02/2018 20:50
NOT Current
Few Clouds
Few Clouds
 Wind from E
Wind: E 16 mph , 26 km/h
Temperature: 3°C
Wind Chill: -2°C
Dew Point: -3°C
Humidity: 65%
Barometer: 1018 hPa
Clouds: Few Clouds
Visibility: 6 miles , 10 km
Cloud details: Few Clouds 457 m
2018/02/24 20:50 EGJB 242050Z 09014KT 9999 FEW015 03/M03 Q1018
EGDM - Boscombe Down, United Kingdom
Distance from station: ENE 144km
Updated: 25/02/2018 00:50
NOT Current
Clear
Clear
 Wind from ENE
Wind: ENE 10 mph , 17 km/h
Temperature: -1°C
Wind Chill: -6°C
Dew Point: -3°C
Humidity: 86%
Barometer: 1023 hPa
Clouds: Clear
Visibility: 6 miles , 10 km
2018/02/25 00:50 EGDM 250050Z AUTO 07009KT 9999 NCD M01/M03 Q1023
 
EGOP - Pembry Sands, United Kingdom
Distance from station: NNW 147km
Updated: 25/02/2018 00:50
NOT Current
Clear
Clear
 Wind from E
Wind: E 6 mph , 9 km/h
Temperature: 1°C
Wind Chill: -2°C
Dew Point: -4°C
Humidity: 70%
Barometer: 1023 hPa
Clouds: Clear
Visibility: 6 miles , 10 km
2018/02/25 00:50 EGOP 250050Z AUTO 08005KT 9999 // NCD 01/M04 Q1023
EGVP - Middle Wallop, United Kingdom
Distance from station: ENE 153km
Updated: 25/02/2018 00:50
NOT Current
Clear
Clear
 Wind from ENE
Wind: ENE 9 mph , 15 km/h
Temperature: 1°C
Wind Chill: -3°C
Dew Point: -2°C
Humidity: 81%
Barometer: 1023 hPa
Clouds: Clear
Visibility: 6 miles , 10 km
2018/02/25 00:50 EGVP 250050Z AUTO 07008KT 9999 // NCD 01/M02 Q1023
 
EGHI - Southampton Wx C, United Kingdom
Distance from station: ENE 159km
Updated: 24/02/2018 21:20
NOT Current
Clear
Clear
 Wind from ENE
Wind: ENE 6 mph , 9 km/h
Temperature: 1°C
Wind Chill: -2°C
Dew Point: -5°C
Humidity: 65%
Barometer: 1022 hPa
Summary: Clear
Visibility: greater than 7 miles , 10 km
2018/02/24 21:20 EGHI 242120Z 06005KT 020V100 CAVOK 01/M05 Q1022